Main page
METAR-TAF:

METAR-TAF

Airports :

Delaware County Airport (Johnson Field)

Muncie, Indiana, United States

latitude: 40-14-03N, longitude: 085-23-37W, elevation: 935 ft

Current weather observation

The report was made 13 minutes ago, at 21:53 UTC
Wind 6 mph from the North
Temperature 52°F
Humidity 62%
Pressure 30.03 in. Hg
Visibility: 10 miles
Few clouds at a height of 2600 ft
Broken clouds at a height of 4000 ft
Overcast at a height of 7000 ft

METAR: KMIE 012153Z 01005KT 10SM FEW026 BKN040 OVC070 11/04 A3003 RMK AO2 SLP169 T01110039

Time: 18:06 (22:06 UTC)


TAF: missing

Weather observations and forecasts of more than 4000 airports (METAR and TAF reports).

The available stations are represented by yellow and red dots on the map.

Hover mouse over dot to see the name of the station.

Then click to see weather observations and forecasts.

To change the map : click on the green buttons with a black cross to zoom in, on the green button with a dash to zoom out, or on the green arrows for adjacent maps.


METAR-TAF: